X  Cerrar Datos meteorológicos de aviación METAR        LEAL ELCHE/ALTET
Temperatura
7°C Temperatura
6°C Punto de rocío
93% Humedad



Viento
6 KM/H
3 MPH
1 M/S
3 NUDO



300°
ONO
Condiciones actuales

Mostly Clear Mayormente cielo despejado
Presión 1030 (hPa) - 30.42 (inHg)
Visibilidad 7 (milla) - 11 (km)
Aeropuerto
Código de aeropuerto LEAL

localidad: ELCHE/ALTET
Distancia: 14 (km)

Metar:
METAR LEAL 280230Z 30003KT CAVOK 07/06 Q1030 NOSIG

Hora: 28-01-2022 03:30 CET